Time;durP1;ratioP1;P1;durP2;ratioP2;P2;SDS_P1;SDS_P2;PMS_P1;PMS_P2;Temp;Humidity;BMP_temperature;BMP_pressure;BME280_temperature;BME280_humidity;BME280_pressure;Samples;Min_cycle;Max_cycle;Signal;HPM_P1;HPM_P2
2021/06/27 00:00:26;;;;;;;26.45;24.27;;;;;;;16.06;76.42;93533.56;5088725;28;20093;-47
2021/06/27 00:02:51;;;;;;;26.75;25.30;;;;;;;16.06;75.59;93536.34;5089723;28;20056;-49
2021/06/27 00:05:19;;;;;;;24.23;22.27;;;;;;;16.06;75.50;93539.13;5089684;28;20473;-48
2021/06/27 00:07:45;;;;;;;23.70;22.27;;;;;;;16.00;76.44;93536.63;5089408;28;20031;-46
2021/06/27 00:10:14;;;;;;;18.83;17.35;;;;;;;16.05;75.36;93532.09;5089443;28;20024;-49
2021/06/27 00:12:40;;;;;;;15.85;14.57;;;;;;;16.11;75.08;93532.56;5089436;28;20024;-47
2021/06/27 00:15:11;;;;;;;21.48;14.23;;;;;;;16.07;74.99;93538.53;5089286;28;20036;-48
2021/06/27 00:17:37;;;;;;;17.80;12.73;;;;;;;16.11;74.44;93533.28;5089482;28;20028;-47
2021/06/27 00:20:06;;;;;;;16.13;15.20;;;;;;;16.10;74.66;93522.72;5089208;28;20412;-46
2021/06/27 00:22:31;;;;;;;21.70;20.30;;;;;;;15.97;75.79;93523.88;5089465;28;20024;-46
2021/06/27 00:24:57;;;;;;;24.10;22.80;;;;;;;15.91;76.53;93531.78;5090211;28;20470;-46
2021/06/27 00:27:22;;;;;;;22.92;21.20;;;;;;;16.03;76.07;93532.66;5091017;28;20035;-45
2021/06/27 00:29:48;;;;;;;17.98;16.25;;;;;;;16.02;76.05;93536.78;5072667;28;20013;-45
2021/06/27 00:32:13;;;;;;;14.32;13.43;;;;;;;16.02;74.23;93520.06;5072690;28;20030;-46
2021/06/27 00:34:38;;;;;;;16.05;14.68;;;;;;;16.13;74.98;93536.22;5072618;28;20413;-46
2021/06/27 00:37:04;;;;;;;12.75;11.88;;;;;;;16.20;73.89;93531.84;5072458;28;20078;-46
2021/06/27 00:39:29;;;;;;;16.25;15.15;;;;;;;16.01;75.31;93517.84;5072299;28;20036;-48
2021/06/27 00:41:55;;;;;;;14.73;13.82;;;;;;;15.92;75.03;93522.81;5072734;28;20024;-48
2021/06/27 00:44:21;;;;;;;19.42;18.42;;;;;;;15.90;75.42;93524.72;5072393;28;20062;-49
2021/06/27 00:46:53;;;;;;;14.98;13.80;;;;;;;15.96;75.07;93516.81;5072648;28;20035;-49
2021/06/27 00:49:20;;;;;;;15.05;14.15;;;;;;;16.12;75.57;93518.03;5072569;28;20028;-49
2021/06/27 00:51:46;;;;;;;13.50;12.57;;;;;;;16.13;74.95;93519.53;5072606;28;20436;-49
2021/06/27 00:54:11;;;;;;;13.88;13.15;;;;;;;16.07;74.27;93507.91;5072154;28;20085;-49
2021/06/27 00:56:37;;;;;;;13.45;12.25;;;;;;;16.09;74.45;93508.06;5072458;28;20040;-49
2021/06/27 00:59:02;;;;;;;14.65;13.55;;;;;;;16.11;74.79;93521.41;5071176;28;20111;-50
2021/06/27 01:01:28;;;;;;;22.17;21.17;;;;;;;16.01;76.33;93521.38;5072361;28;20051;-49
2021/06/27 01:03:53;;;;;;;23.83;22.30;;;;;;;16.01;76.62;93515.06;5072363;28;20106;-50
2021/06/27 01:06:19;;;;;;;19.42;18.30;;;;;;;15.94;76.37;93506.28;5071980;28;20412;-49
2021/06/27 01:08:44;;;;;;;22.88;21.58;;;;;;;16.02;76.48;93508.94;5072239;28;20028;-50
2021/06/27 01:11:10;;;;;;;21.00;19.42;;;;;;;16.08;76.81;93501.03;5071919;28;20047;-50
2021/06/27 01:13:35;;;;;;;23.20;21.70;;;;;;;16.10;76.54;93503.97;5071859;28;20031;-48
2021/06/27 01:16:01;;;;;;;20.02;18.45;;;;;;;16.05;76.06;93495.91;5072109;28;20024;-50
2021/06/27 01:18:27;;;;;;;19.25;18.25;;;;;;;15.99;75.72;93493.38;5061245;28;20029;-49
2021/06/27 01:20:53;;;;;;;17.95;16.45;;;;;;;16.01;76.27;93493.53;5051981;28;20082;-49
2021/06/27 01:23:19;;;;;;;16.23;15.07;;;;;;;16.03;76.42;93496.47;5051731;28;20234;-49
2021/06/27 01:25:50;;;;;;;16.48;15.40;;;;;;;16.04;76.15;93494.41;5051877;28;20043;-49
2021/06/27 01:28:15;;;;;;;14.27;13.55;;;;;;;16.02;75.77;93492.22;5051915;28;20082;-48
2021/06/27 01:30:42;;;;;;;13.10;12.40;;;;;;;16.03;75.14;93488.13;5062305;28;20036;-49
2021/06/27 01:33:11;;;;;;;18.48;17.42;;;;;;;15.96;75.69;93488.97;5071760;28;20079;-47
2021/06/27 01:35:37;;;;;;;14.95;14.02;;;;;;;15.94;75.53;93481.22;5071295;28;20027;-48
2021/06/27 01:38:04;;;;;;;19.63;18.42;;;;;;;15.95;75.87;93479.16;5071160;28;20057;-51
2021/06/27 01:40:30;;;;;;;25.52;24.33;;;;;;;15.92;76.84;93475.50;5071427;28;20023;-49
2021/06/27 01:43:17;;;;;;;20.65;19.65;;;;;;;15.95;76.24;93470.81;5071237;28;20033;-49
2021/06/27 01:45:54;;;;;;;17.52;16.58;;;;;;;15.97;75.97;93481.34;5071622;28;20404;-51
2021/06/27 01:48:19;;;;;;;17.75;16.70;;;;;;;15.93;76.00;93481.78;5071181;28;20028;-50
2021/06/27 01:50:48;;;;;;;22.75;21.73;;;;;;;15.92;77.02;93481.06;5071456;28;20029;-48
2021/06/27 01:53:15;;;;;;;21.85;20.42;;;;;;;16.00;76.30;93477.41;5071138;28;20043;-49
2021/06/27 01:55:42;;;;;;;20.38;19.30;;;;;;;15.84;76.36;93465.81;5071357;28;20403;-50
2021/06/27 01:58:08;;;;;;;14.45;13.60;;;;;;;15.77;76.12;93478.53;5071315;28;20056;-48
2021/06/27 02:00:33;;;;;;;17.38;14.48;;;;;;;15.69;75.88;93474.41;5070927;28;20042;-49
2021/06/27 02:03:00;;;;;;;12.82;12.10;;;;;;;15.82;75.10;93474.00;5071265;28;20024;-48
2021/06/27 02:05:26;;;;;;;13.75;12.68;;;;;;;15.91;74.60;93462.91;5070824;28;20071;-47
2021/06/27 02:07:52;;;;;;;14.50;13.50;;;;;;;15.83;75.02;93465.06;5066855;28;20024;-45
2021/06/27 02:10:23;;;;;;;15.27;14.20;;;;;;;15.77;75.48;93466.66;5051096;28;20033;-45
2021/06/27 02:12:50;;;;;;;12.93;12.07;;;;;;;15.81;74.45;93475.31;5050773;28;20032;-45
2021/06/27 02:15:16;;;;;;;12.40;11.68;;;;;;;15.73;74.93;93469.13;5050619;28;20017;-45
2021/06/27 02:17:56;;;;;;;15.15;13.95;;;;;;;15.64;75.36;93467.06;5050983;28;20031;-45
2021/06/27 02:20:24;;;;;;;18.42;17.10;;;;;;;15.45;75.88;93467.75;5050645;28;20532;-46
2021/06/27 02:22:50;;;;;;;22.30;21.20;;;;;;;15.41;76.74;93470.19;5050897;28;20035;-46
2021/06/27 02:25:15;;;;;;;22.95;21.33;;;;;;;15.36;76.44;93456.53;5050653;28;20017;-47
2021/06/27 02:27:41;;;;;;;14.27;13.48;;;;;;;15.44;75.40;93462.78;5067501;28;20021;-46
2021/06/27 02:30:09;;;;;;;12.10;11.52;;;;;;;15.51;74.89;93461.91;5070396;28;20032;-45
2021/06/27 02:32:34;;;;;;;14.70;13.60;;;;;;;15.42;75.46;93465.38;5070684;28;20377;-46
2021/06/27 02:34:59;;;;;;;14.85;13.73;;;;;;;15.45;75.48;93461.44;5070785;28;20031;-46
2021/06/27 02:37:25;;;;;;;13.13;12.07;;;;;;;15.41;75.38;93456.28;5070663;28;20372;-51
2021/06/27 02:39:50;;;;;;;19.20;18.10;;;;;;;15.37;75.82;93455.25;5070130;28;20526;-50
2021/06/27 02:42:16;;;;;;;32.22;15.15;;;;;;;15.47;76.54;93458.81;5070504;28;20021;-49
2021/06/27 02:44:41;;;;;;;20.85;19.30;;;;;;;15.42;77.59;93460.53;5070554;28;20459;-47
2021/06/27 02:47:07;;;;;;;15.65;14.15;;;;;;;15.45;76.22;93461.44;5070198;28;20484;-48
2021/06/27 02:49:32;;;;;;;16.85;15.85;;;;;;;15.45;76.64;93462.19;5069950;28;20021;-47
2021/06/27 02:51:57;;;;;;;19.02;17.90;;;;;;;15.43;76.66;93464.81;5070120;28;20078;-46
2021/06/27 02:54:23;;;;;;;19.60;18.33;;;;;;;15.44;76.82;93471.13;5070029;28;20086;-49
2021/06/27 02:56:48;;;;;;;16.17;12.95;;;;;;;15.49;75.30;93478.44;5070230;28;20026;-51
2021/06/27 02:59:14;;;;;;;14.15;13.38;;;;;;;15.29;75.13;93485.22;5069554;28;20403;-47
2021/06/27 03:01:39;;;;;;;15.25;14.25;;;;;;;15.25;75.87;93496.75;5069863;28;20024;-47
2021/06/27 03:04:05;;;;;;;19.23;14.45;;;;;;;15.25;76.05;93499.53;5070139;28;20028;-50
2021/06/27 03:06:30;;;;;;;27.73;14.95;;;;;;;15.31;75.58;93496.50;5070084;28;20016;-49
2021/06/27 03:08:55;;;;;;;17.77;14.68;;;;;;;15.30;75.89;93492.25;5069958;28;20031;-51
2021/06/27 03:11:21;;;;;;;15.73;14.52;;;;;;;15.25;76.46;93496.75;5070039;28;20024;-49
2021/06/27 03:13:46;;;;;;;18.55;17.58;;;;;;;15.24;76.74;93489.00;5069967;28;20099;-50
2021/06/27 03:16:12;;;;;;;18.52;17.45;;;;;;;15.25;77.11;93496.75;5069619;28;20761;-50
2021/06/27 03:18:38;;;;;;;19.52;18.00;;;;;;;15.24;77.60;93503.66;5069856;28;20029;-48
2021/06/27 03:21:03;;;;;;;16.08;15.07;;;;;;;15.31;77.71;93502.06;5069909;28;20055;-48
2021/06/27 03:23:30;;;;;;;20.50;18.67;;;;;;;15.09;76.83;93479.53;5069445;28;20020;-49
2021/06/27 03:25:55;;;;;;;19.48;18.27;;;;;;;15.28;77.08;93506.00;5069770;28;20021;-49
2021/06/27 03:28:22;;;;;;;16.98;16.17;;;;;;;15.21;77.25;93502.00;5069803;28;20059;-50
2021/06/27 03:30:48;;;;;;;22.20;20.58;;;;;;;15.32;77.95;93518.16;5081246;28;20077;-49
2021/06/27 03:33:13;;;;;;;16.98;16.05;;;;;;;15.37;76.94;93517.19;5079127;28;20028;-50
2021/06/27 03:35:39;;;;;;;18.02;17.13;;;;;;;15.26;77.65;93520.50;5069768;28;20111;-49
2021/06/27 03:40:43;;;;;;;16.65;15.43;;;;;;;15.14;76.90;93494.50;5069838;28;20021;-48
2021/06/27 03:43:09;;;;;;;17.05;16.00;;;;;;;15.26;76.61;93509.38;5069667;28;20112;-49
2021/06/27 03:45:34;;;;;;;17.05;16.30;;;;;;;15.37;76.88;93510.88;5069585;28;20095;-48
2021/06/27 03:48:00;;;;;;;17.38;16.27;;;;;;;15.46;77.00;93513.75;5062599;28;20029;-49
2021/06/27 03:50:25;;;;;;;19.08;17.88;;;;;;;15.51;78.01;93515.50;5047985;28;20023;-47
2021/06/27 03:52:51;;;;;;;19.73;18.60;;;;;;;15.57;78.44;93518.75;5049615;28;20029;-46
2021/06/27 03:55:18;;;;;;;16.35;15.07;;;;;;;15.60;77.97;93520.38;5049225;28;20458;-48
2021/06/27 03:57:45;;;;;;;16.67;15.15;;;;;;;15.67;77.39;93524.34;5049441;28;20086;-47
2021/06/27 04:00:11;;;;;;;15.65;14.77;;;;;;;15.67;77.41;93525.09;5050682;28;20488;-48
2021/06/27 04:02:37;;;;;;;15.57;14.45;;;;;;;15.62;77.12;93514.97;5053458;28;20043;-47
2021/06/27 04:05:04;;;;;;;18.33;17.08;;;;;;;15.59;78.07;93518.19;5053559;28;20021;-49
2021/06/27 04:07:30;;;;;;;22.35;20.80;;;;;;;15.65;77.97;93516.59;5052911;28;20520;-49
2021/06/27 04:09:55;;;;;;;24.10;22.70;;;;;;;15.66;77.96;93512.47;5052498;28;20024;-49
2021/06/27 04:12:21;;;;;;;20.40;18.85;;;;;;;15.77;77.97;93511.19;5051984;28;20091;-49
2021/06/27 04:14:46;;;;;;;19.15;18.05;;;;;;;15.76;77.43;93515.31;5051820;28;20017;-48
2021/06/27 04:17:16;;;;;;;21.88;20.13;;;;;;;15.83;77.40;93520.03;5053192;28;20029;-49
2021/06/27 04:32:17;;;;;;;27.27;24.90;;;;;;;16.55;75.35;93507.97;5127529;27;20607;-49
2021/06/27 04:34:43;;;;;;;34.05;21.75;;;;;;;16.42;76.13;93511.91;5127634;27;20118;-48
2021/06/27 04:37:09;;;;;;;24.05;21.98;;;;;;;16.35;76.97;93517.66;5127786;27;20030;-47
2021/06/27 04:39:34;;;;;;;20.55;19.05;;;;;;;16.34;78.09;93518.94;5108423;27;20024;-47
2021/06/27 04:42:00;;;;;;;20.90;19.40;;;;;;;16.38;78.14;93522.03;5106983;27;20028;-48
2021/06/27 04:44:25;;;;;;;23.08;21.48;;;;;;;16.41;78.74;93527.19;5107144;28;20031;-48
2021/06/27 04:46:50;;;;;;;20.85;19.38;;;;;;;16.32;79.12;93529.94;5106940;28;20073;-49
2021/06/27 04:49:16;;;;;;;21.67;19.80;;;;;;;16.41;79.05;93526.44;5105554;28;20016;-51
2021/06/27 04:51:41;;;;;;;24.20;20.98;;;;;;;16.46;79.04;93526.16;5106888;27;20015;-48
2021/06/27 04:54:07;;;;;;;23.90;22.50;;;;;;;16.44;79.28;93522.47;5108751;28;20511;-50
2021/06/27 04:56:33;;;;;;;23.92;22.40;;;;;;;16.58;79.50;93518.72;5127234;27;20617;-48
2021/06/27 04:58:58;;;;;;;20.85;19.55;;;;;;;16.59;79.43;93522.22;5127554;27;20035;-48
2021/06/27 05:01:23;;;;;;;27.45;25.60;;;;;;;16.63;79.83;93526.03;5121694;27;20404;-48
2021/06/27 05:03:49;;;;;;;25.67;23.95;;;;;;;16.70;79.97;93520.91;5118088;27;20027;-49
2021/06/27 05:06:14;;;;;;;27.52;25.73;;;;;;;16.75;80.95;93519.88;5127522;27;20039;-49
2021/06/27 05:08:40;;;;;;;31.33;29.42;;;;;;;16.77;81.26;93512.38;5127203;27;20453;-48
2021/06/27 05:11:05;;;;;;;33.35;30.70;;;;;;;16.91;80.98;93515.47;5127128;27;20016;-49
2021/06/27 05:13:31;;;;;;;30.63;28.83;;;;;;;16.98;80.97;93525.75;5127016;27;20020;-50
2021/06/27 05:15:56;;;;;;;31.90;29.70;;;;;;;16.91;81.32;93518.25;5113612;27;20040;-50
2021/06/27 05:18:23;;;;;;;30.13;28.55;;;;;;;16.96;81.72;93533.94;5106181;28;20427;-51
2021/06/27 05:20:48;;;;;;;28.13;26.23;;;;;;;17.03;81.11;93533.78;5118451;28;20019;-55
2021/06/27 05:23:15;;;;;;;30.75;27.33;;;;;;;17.07;81.02;93522.19;5123957;27;20087;-51
2021/06/27 05:25:41;;;;;;;28.65;26.70;;;;;;;17.02;81.48;93535.09;5123669;27;20019;-50
2021/06/27 05:28:07;;;;;;;31.42;29.13;;;;;;;16.99;81.50;93532.78;5123472;27;20097;-49
2021/06/27 05:30:33;;;;;;;33.47;31.33;;;;;;;17.15;81.41;93533.94;5124504;27;20088;-51
2021/06/27 05:33:00;;;;;;;39.08;36.38;;;;;;;17.21;81.96;93531.56;5113356;27;20481;-50
2021/06/27 05:35:26;;;;;;;49.97;47.08;;;;;;;17.33;82.13;93535.94;5111583;28;20028;-52
2021/06/27 05:37:51;;;;;;;37.80;35.60;;;;;;;17.40;81.80;93535.06;5112113;28;20019;-48
2021/06/27 05:40:17;;;;;;;41.58;39.33;;;;;;;17.40;82.06;93537.09;5112489;28;20035;-50
2021/06/27 05:42:44;;;;;;;44.53;42.03;;;;;;;17.41;82.41;93524.63;5112966;28;20050;-50
2021/06/27 05:45:09;;;;;;;43.72;41.38;;;;;;;17.59;82.93;93539.84;5112746;28;20027;-49
2021/06/27 05:47:35;;;;;;;42.63;40.22;;;;;;;17.66;82.26;93546.59;5112787;28;20421;-49
2021/06/27 05:50:00;;;;;;;36.28;34.00;;;;;;;17.64;81.52;93543.66;5112786;28;20016;-48
2021/06/27 05:52:26;;;;;;;38.33;35.70;;;;;;;17.80;81.14;93545.50;5112413;28;20098;-48
2021/06/27 05:54:51;;;;;;;31.15;28.75;;;;;;;17.91;80.90;93549.75;5112680;28;20026;-49
2021/06/27 05:57:17;;;;;;;30.00;28.17;;;;;;;17.99;80.98;93548.25;5112523;28;20024;-49
2021/06/27 05:59:43;;;;;;;28.13;26.02;;;;;;;18.06;80.56;93541.00;5112177;28;20093;-51
2021/06/27 06:02:08;;;;;;;26.38;24.75;;;;;;;18.18;80.40;93539.00;5112219;28;20088;-49
2021/06/27 06:04:34;;;;;;;27.00;25.27;;;;;;;18.34;79.85;93540.13;5112460;28;20023;-49
2021/06/27 06:06:59;;;;;;;24.10;22.23;;;;;;;18.43;78.62;93544.88;5112096;28;20024;-48
2021/06/27 06:09:25;;;;;;;15.25;13.63;;;;;;;18.37;78.18;93549.34;5112031;28;20027;-48
2021/06/27 06:11:50;;;;;;;15.02;13.88;;;;;;;18.49;77.37;93544.59;5112064;28;20008;-48
2021/06/27 06:14:17;;;;;;;20.02;17.52;;;;;;;18.49;78.13;93547.41;5111943;28;20024;-49
2021/06/27 06:16:46;;;;;;;24.05;22.45;;;;;;;18.54;78.78;93546.31;5111952;28;20077;-50
2021/06/27 06:19:11;;;;;;;;;;;;;;;18.64;79.58;93556.13;5111726;28;20019;-48
2021/06/27 06:21:37;;;;;;;14.75;13.65;;;;;;;18.76;77.38;93547.78;5111701;28;19915;-49
2021/06/27 06:24:03;;;;;;;20.40;18.98;;;;;;;18.78;79.45;93550.72;5111016;28;20542;-50
2021/06/27 06:26:29;;;;;;;15.38;14.20;;;;;;;18.83;78.17;93549.66;5110712;28;20027;-47
2021/06/27 06:28:55;;;;;;;19.08;13.43;;;;;;;18.87;76.82;93545.03;5111643;28;20019;-50
2021/06/27 06:31:20;;;;;;;14.07;12.85;;;;;;;18.90;77.21;93538.25;5094437;28;20059;-49
2021/06/27 06:33:45;;;;;;;19.13;17.52;;;;;;;19.04;78.80;93540.47;5091526;28;20027;-49
2021/06/27 06:36:11;;;;;;;20.48;18.77;;;;;;;18.99;78.20;93524.78;5091453;28;20503;-49
2021/06/27 06:38:36;;;;;;;16.02;14.80;;;;;;;19.08;78.27;93538.66;5091417;28;20020;-49
2021/06/27 06:41:02;;;;;;;15.15;13.85;;;;;;;19.18;77.25;93536.53;5091127;28;20101;-49
2021/06/27 06:43:27;;;;;;;12.63;11.73;;;;;;;19.17;76.10;93520.31;5090259;28;20036;-51
2021/06/27 06:45:53;;;;;;;16.85;15.05;;;;;;;19.40;77.59;93537.97;5091260;28;20039;-49
2021/06/27 06:48:20;;;;;;;13.75;12.68;;;;;;;19.43;76.25;93519.94;5091141;28;20081;-48
2021/06/27 06:50:45;;;;;;;11.68;10.68;;;;;;;19.46;76.32;93529.94;5091168;28;20031;-47
2021/06/27 06:53:10;;;;;;;12.35;11.35;;;;;;;19.57;75.67;93532.03;5091250;28;20028;-48
2021/06/27 06:55:36;;;;;;;16.40;12.60;;;;;;;19.61;76.28;93525.94;5090379;28;20106;-47
2021/06/27 06:58:01;;;;;;;12.52;10.75;;;;;;;19.69;74.98;93523.63;5091016;28;20028;-48
2021/06/27 07:00:28;;;;;;;11.30;10.18;;;;;;;19.76;74.93;93519.88;5090520;28;20394;-50
2021/06/27 07:02:53;;;;;;;16.40;14.43;;;;;;;19.83;76.19;93518.91;5090652;28;20046;-47
2021/06/27 07:05:19;;;;;;;12.52;11.40;;;;;;;19.99;75.62;93521.97;5090527;28;20024;-49
2021/06/27 07:07:47;;;;;;;15.07;13.98;;;;;;;20.06;76.63;93518.16;5097830;28;20027;-51
2021/06/27 07:10:13;;;;;;;16.88;15.25;;;;;;;20.20;76.11;93519.03;5110567;28;20027;-45
2021/06/27 07:12:39;;;;;;;14.13;12.75;;;;;;;20.22;75.50;93528.31;5110331;28;20039;-48
2021/06/27 07:15:05;;;;;;;16.65;15.07;;;;;;;20.25;75.65;93521.47;5110763;28;20031;-48
2021/06/27 07:17:31;;;;;;;11.55;10.45;;;;;;;20.30;74.51;93514.03;5110751;28;20070;-48
2021/06/27 07:19:57;;;;;;;14.70;13.65;;;;;;;20.42;75.93;93517.56;5110874;28;20027;-47
2021/06/27 07:22:22;;;;;;;16.65;15.18;;;;;;;20.49;75.74;93510.25;5110588;28;20046;-51
2021/06/27 07:24:49;;;;;;;16.55;15.20;;;;;;;20.77;77.17;93518.19;5110646;28;20065;-48
2021/06/27 07:27:14;;;;;;;13.40;12.18;;;;;;;20.99;74.20;93516.66;5110861;28;20032;-46
2021/06/27 07:29:39;;;;;;;14.35;13.35;;;;;;;21.26;74.84;93518.19;5109940;28;20089;-46
2021/06/27 07:32:06;;;;;;;10.75;9.25;;;;;;;21.41;73.02;93518.34;5110528;28;20044;-53
2021/06/27 07:34:31;;;;;;;10.05;9.18;;;;;;;21.71;73.50;93522.06;5110941;28;20027;-52
2021/06/27 07:36:57;;;;;;;11.68;9.43;;;;;;;22.01;71.48;93525.78;5110640;28;20713;-51
2021/06/27 07:39:22;;;;;;;17.80;10.75;;;;;;;22.37;69.56;93522.78;5110508;28;20059;-47
2021/06/27 07:41:48;;;;;;;13.10;7.75;;;;;;;22.72;66.34;93527.41;5110345;28;20080;-49
2021/06/27 07:44:13;;;;;;;9.70;6.30;;;;;;;23.02;66.88;93517.66;5105466;28;20043;-50
2021/06/27 07:46:39;;;;;;;7.22;6.10;;;;;;;23.41;66.10;93521.00;5102123;28;20469;-50
2021/06/27 07:49:04;;;;;;;7.97;5.20;;;;;;;23.72;63.46;93523.13;5110660;28;20030;-50
2021/06/27 07:51:30;;;;;;;14.73;8.88;;;;;;;24.12;63.38;93524.28;5110574;28;20115;-55
2021/06/27 07:53:55;;;;;;;8.23;4.45;;;;;;;24.76;58.75;93522.22;5110249;28;20518;-49
2021/06/27 07:56:21;;;;;;;8.60;5.13;;;;;;;25.38;57.64;93512.78;5107627;28;20027;-48
2021/06/27 07:58:46;;;;;;;4.63;4.18;;;;;;;25.85;56.10;93518.19;5107771;28;20047;-47
2021/06/27 08:01:12;;;;;;;7.90;4.63;;;;;;;26.58;53.69;93515.97;5108000;28;20425;-45
2021/06/27 08:03:37;;;;;;;9.70;3.92;;;;;;;27.07;50.18;93520.53;5103501;28;20031;-46
2021/06/27 08:06:03;;;;;;;10.75;3.60;;;;;;;27.68;47.96;93521.88;5087811;28;20028;-45
2021/06/27 08:08:28;;;;;;;10.13;4.03;;;;;;;28.13;46.19;93523.97;5086062;28;20542;-49
2021/06/27 08:10:54;;;;;;;11.10;3.63;;;;;;;28.78;46.10;93523.78;5087853;28;20052;-47
2021/06/27 08:13:19;;;;;;;6.00;3.08;;;;;;;28.57;46.68;93521.75;5087585;28;20454;-45
2021/06/27 08:15:45;;;;;;;8.82;3.45;;;;;;;28.90;45.40;93515.56;5087202;28;20067;-45
2021/06/27 08:18:10;;;;;;;14.20;3.40;;;;;;;29.03;45.94;93516.59;5085853;28;20059;-46
2021/06/27 08:20:36;;;;;;;10.38;3.53;;;;;;;29.29;45.35;93513.75;5087340;28;20080;-44
2021/06/27 08:23:01;;;;;;;6.75;3.70;;;;;;;29.06;45.60;93489.69;5087176;28;20050;-47
2021/06/27 08:25:28;;;;;;;9.20;3.75;;;;;;;29.14;45.83;93509.78;5086993;28;20043;-48
2021/06/27 08:27:53;;;;;;;11.07;4.10;;;;;;;29.53;46.59;93505.81;5087433;28;20115;-48
2021/06/27 08:30:20;;;;;;;4.70;3.47;;;;;;;30.13;40.32;93506.50;5097526;28;20092;-47
2021/06/27 08:32:47;;;;;;;6.82;3.47;;;;;;;30.41;39.52;93504.31;5087460;28;20568;-48
2021/06/27 08:35:22;;;;;;;7.45;3.10;;;;;;;30.74;37.11;93497.84;5087503;28;20467;-45
2021/06/27 08:37:49;;;;;;;6.70;3.63;;;;;;;30.70;39.04;93503.47;5087405;28;20062;-48
2021/06/27 08:40:17;;;;;;;6.28;2.92;;;;;;;31.24;36.62;93495.25;5087122;28;20525;-44
2021/06/27 08:42:42;;;;;;;4.53;3.05;;;;;;;31.52;34.16;93500.75;5097009;28;20031;-48
2021/06/27 08:45:10;;;;;;;6.15;3.65;;;;;;;31.43;34.79;93482.75;5096141;28;20031;-46
2021/06/27 08:47:37;;;;;;;7.28;3.08;;;;;;;31.66;34.91;93504.56;5094176;28;20047;-46
2021/06/27 08:50:08;;;;;;;6.60;3.58;;;;;;;32.13;36.13;93498.19;5097197;28;20473;-46
2021/06/27 08:52:34;;;;;;;7.78;3.33;;;;;;;32.38;34.65;93493.50;5096324;28;20026;-46
2021/06/27 08:55:00;;;;;;;7.75;3.28;;;;;;;32.59;34.87;93486.66;5094977;28;20020;-47
2021/06/27 08:57:26;;;;;;;5.68;3.25;;;;;;;33.00;33.84;93498.59;5096794;28;20028;-46
2021/06/27 08:59:53;;;;;;;6.20;2.85;;;;;;;33.53;33.61;93497.72;5096047;28;20099;-47
2021/06/27 09:02:19;;;;;;;6.18;3.00;;;;;;;33.36;32.37;93484.66;5094645;28;20024;-47
2021/06/27 09:04:44;;;;;;;7.60;3.25;;;;;;;33.45;32.58;93497.63;5096685;28;20388;-45
2021/06/27 09:07:29;;;;;;;6.30;2.97;;;;;;;32.83;33.57;93491.94;5095381;28;20097;-46
2021/06/27 09:10:06;;;;;;;4.57;3.03;;;;;;;33.24;33.52;93493.13;5100639;28;20839;-48
2021/06/27 09:12:48;;;;;;;3.45;3.15;;;;;;;33.39;32.90;93495.44;5100345;28;20389;-45
2021/06/27 09:15:14;;;;;;;5.45;3.22;;;;;;;33.34;32.70;93493.22;5101299;28;20051;-44
2021/06/27 09:17:44;;;;;;;6.78;3.58;;;;;;;33.04;33.49;93492.91;5093220;28;20031;-48
2021/06/27 09:20:11;;;;;;;9.05;3.97;;;;;;;33.27;33.85;93492.44;5090215;28;20081;-46
2021/06/27 09:22:41;;;;;;;7.45;3.75;;;;;;;33.18;34.57;93495.94;5108716;28;20027;-45
2021/06/27 09:25:20;;;;;;;6.50;2.95;;;;;;;33.57;31.22;93497.75;5110841;28;20432;-43
2021/06/27 09:28:05;;;;;;;4.90;3.13;;;;;;;33.80;33.22;93493.66;5106217;28;20032;-46
2021/06/27 09:30:45;;;;;;;6.93;3.63;;;;;;;33.93;34.05;93498.06;5095060;28;20036;-46
2021/06/27 09:33:14;;;;;;;5.40;2.83;;;;;;;33.77;33.55;93492.19;5101075;28;20028;-45
2021/06/27 09:35:52;;;;;;;6.40;2.92;;;;;;;33.98;33.62;93502.38;5110699;28;20042;-43
2021/06/27 09:38:31;;;;;;;8.57;3.63;;;;;;;34.34;31.30;93499.06;5110687;28;20024;-46
2021/06/27 09:41:01;;;;;;;5.30;3.55;;;;;;;34.33;31.97;93501.19;5110778;28;20072;-44
2021/06/27 09:43:28;;;;;;;12.80;3.65;;;;;;;34.09;32.64;93501.03;5099690;28;20035;-44
2021/06/27 09:45:59;;;;;;;4.72;3.35;;;;;;;34.13;32.59;93503.94;5092722;28;20035;-46
2021/06/27 09:48:26;;;;;;;11.45;3.58;;;;;;;33.95;31.74;93500.19;5092628;28;20028;-46
2021/06/27 09:50:52;;;;;;;7.22;3.35;;;;;;;33.47;32.77;93498.34;5092626;28;20035;-47
2021/06/27 09:53:37;;;;;;;5.13;3.63;;;;;;;33.70;32.67;93496.41;5092488;28;20047;-47
2021/06/27 09:56:05;;;;;;;6.03;3.83;;;;;;;33.24;32.92;93491.00;5092465;28;20024;-48
2021/06/27 09:58:30;;;;;;;7.78;3.38;;;;;;;32.96;33.82;93490.66;5092074;28;20512;-46
2021/06/27 10:00:57;;;;;;;27.95;4.35;;;;;;;32.78;34.02;93488.31;5103693;28;20055;-46
2021/06/27 10:03:24;;;;;;;14.80;3.75;;;;;;;33.11;34.68;93494.44;5112422;28;20027;-47
2021/06/27 10:05:50;;;;;;;4.18;3.20;;;;;;;33.23;33.60;93500.25;5112317;28;20024;-45
2021/06/27 10:08:28;;;;;;;5.68;2.97;;;;;;;33.36;31.65;93490.38;5094108;28;20030;-46
2021/06/27 10:11:13;;;;;;;6.85;3.08;;;;;;;32.82;34.34;93490.50;5112486;28;20474;-44
2021/06/27 10:13:40;;;;;;;3.85;3.28;;;;;;;33.26;34.56;93491.00;5112445;28;20032;-45
2021/06/27 10:16:06;;;;;;;6.38;3.42;;;;;;;32.90;33.17;93442.69;5112143;28;20084;-46
2021/06/27 10:18:34;;;;;;;5.00;3.13;;;;;;;33.54;32.39;93487.72;5112301;28;20023;-44
2021/06/27 10:20:59;;;;;;;3.38;3.08;;;;;;;33.26;31.95;93493.88;5112238;28;20111;-47
2021/06/27 10:23:25;;;;;;;7.00;3.40;;;;;;;33.03;33.99;93497.22;5111955;28;20433;-44
2021/06/27 10:25:52;;;;;;;5.95;4.68;;;;;;;33.23;34.94;93497.41;5111403;28;20528;-48
2021/06/27 10:28:18;;;;;;;7.95;3.90;;;;;;;33.02;35.08;93447.13;5109772;28;20028;-45
2021/06/27 10:30:43;;;;;;;6.32;3.38;;;;;;;33.51;32.74;93494.84;5089681;28;20592;-44
2021/06/27 10:33:09;;;;;;;4.25;3.13;;;;;;;33.54;32.46;93493.44;5090111;28;20016;-44
2021/06/27 10:35:35;;;;;;;7.28;3.58;;;;;;;33.51;33.64;93489.84;5090371;28;20034;-43
2021/06/27 10:38:04;;;;;;;17.98;3.78;;;;;;;33.71;33.69;93491.41;5088942;28;20073;-45
2021/06/27 10:40:57;;;;;;;13.38;3.83;;;;;;;33.97;32.80;93480.16;5089756;28;20107;-43
2021/06/27 10:43:24;;;;;;;5.72;3.00;;;;;;;34.13;32.82;93480.31;5091186;28;20035;-46
2021/06/27 10:45:52;;;;;;;7.18;3.53;;;;;;;34.04;31.73;93478.81;5091298;28;20027;-45
2021/06/27 10:48:33;;;;;;;4.47;3.17;;;;;;;33.52;31.78;93474.09;5090946;28;20028;-48
2021/06/27 10:51:00;;;;;;;5.40;3.28;;;;;;;33.40;32.85;93481.81;5091231;28;20038;-48
2021/06/27 10:53:26;;;;;;;6.10;3.72;;;;;;;33.31;32.63;93477.47;5090858;28;20034;-46
2021/06/27 10:55:58;;;;;;;5.72;3.40;;;;;;;32.90;33.18;93476.28;5092946;28;20031;-50
2021/06/27 10:58:39;;;;;;;8.73;4.07;;;;;;;32.66;35.52;93479.59;5111215;28;20088;-50
2021/06/27 11:01:09;;;;;;;5.53;3.55;;;;;;;32.76;35.19;93479.00;5111023;28;20031;-50
2021/06/27 11:03:38;;;;;;;6.75;3.65;;;;;;;32.69;36.57;93472.50;5110647;27;20028;-46
2021/06/27 11:06:23;;;;;;;8.60;3.72;;;;;;;32.22;36.12;93470.44;5110535;28;20061;-48
2021/06/27 11:08:55;;;;;;;9.32;3.78;;;;;;;31.96;35.41;93467.94;5110812;28;20031;-49
2021/06/27 11:11:22;;;;;;;10.25;4.40;;;;;;;31.91;35.26;93474.25;5111120;28;20407;-47
2021/06/27 11:14:12;;;;;;;9.85;3.83;;;;;;;31.69;35.44;93471.78;5111189;28;20050;-46
2021/06/27 11:17:10;;;;;;;6.55;3.80;;;;;;;31.33;35.98;93471.16;5098774;28;20109;-49
2021/06/27 11:19:38;;;;;;;8.63;4.45;;;;;;;31.24;38.00;93469.56;5086115;28;20416;-49
2021/06/27 11:22:15;;;;;;;6.45;3.90;;;;;;;31.26;36.80;93464.63;5098772;28;20040;-46
2021/06/27 11:24:41;;;;;;;9.57;4.57;;;;;;;31.01;37.91;93465.63;5089391;28;20504;-47
2021/06/27 11:27:06;;;;;;;9.55;4.20;;;;;;;31.21;39.14;93465.97;5090380;28;20024;-44
2021/06/27 11:29:32;;;;;;;6.90;4.28;;;;;;;31.24;38.29;93472.44;5100719;28;20119;-49
2021/06/27 11:32:09;;;;;;;7.15;4.13;;;;;;;31.29;37.90;93476.81;5089793;28;20063;-47
2021/06/27 11:34:36;;;;;;;7.45;4.60;;;;;;;31.37;36.95;93466.25;5089505;28;20027;-46
2021/06/27 11:37:17;;;;;;;9.25;4.38;;;;;;;31.43;38.62;93460.66;5089592;28;20027;-46